Time;durP1;ratioP1;P1;durP2;ratioP2;P2;SDS_P1;SDS_P2;PMS_P1;PMS_P2;Temp;Humidity;BMP_temperature;BMP_pressure;BME280_temperature;BME280_humidity;BME280_pressure;Samples;Min_cycle;Max_cycle;Signal;HPM_P1;HPM_P2
2023/08/07 00:02:00;;;;;;;3.25;1.48;;;;;;;9.06;100.00;93962.13;5001917;28;20042;-64
2023/08/07 00:04:28;;;;;;;4.55;2.10;;;;;;;9.30;100.00;93963.09;5009116;28;20372;-62
2023/08/07 00:06:55;;;;;;;2.93;1.37;;;;;;;9.33;100.00;93961.47;5008986;28;20175;-62
2023/08/07 00:09:21;;;;;;;3.22;1.58;;;;;;;9.23;100.00;93965.88;5009104;28;20418;-62
2023/08/07 00:11:48;;;;;;;3.65;1.63;;;;;;;9.48;100.00;93965.66;5008663;28;20380;-62
2023/08/07 00:14:15;;;;;;;2.95;1.42;;;;;;;9.51;100.00;93962.06;5007676;28;20414;-65
2023/08/07 00:16:42;;;;;;;3.50;1.40;;;;;;;9.62;100.00;93966.66;5008519;28;20045;-66
2023/08/07 00:19:09;;;;;;;3.33;1.60;;;;;;;9.63;100.00;93960.00;5008808;28;20042;-66
2023/08/07 00:21:36;;;;;;;3.05;1.70;;;;;;;9.52;100.00;93965.63;5008765;28;20042;-60
2023/08/07 00:24:03;;;;;;;3.17;1.70;;;;;;;9.60;100.00;93956.13;5008503;28;20042;-65
2023/08/07 00:26:32;;;;;;;3.35;1.50;;;;;;;9.70;100.00;93955.22;5008868;28;20053;-63
2023/08/07 00:28:58;;;;;;;6.38;3.90;;;;;;;9.76;100.00;93959.06;5008071;28;20465;-62
2023/08/07 00:31:25;;;;;;;4.47;2.23;;;;;;;9.73;100.00;93956.38;5008530;28;20406;-65
2023/08/07 00:33:54;;;;;;;2.88;1.58;;;;;;;9.66;100.00;93956.44;5000436;28;20104;-66
2023/08/07 00:36:21;;;;;;;4.15;1.83;;;;;;;9.25;100.00;93962.75;5002910;28;20057;-62
2023/08/07 00:38:47;;;;;;;4.63;1.88;;;;;;;9.25;100.00;93973.69;5008532;28;20045;-62
2023/08/07 00:41:16;;;;;;;3.13;1.90;;;;;;;9.37;100.00;93970.44;4995613;28;20042;-62
2023/08/07 00:43:43;;;;;;;3.50;1.70;;;;;;;9.49;100.00;93967.19;5007851;28;20042;-62
2023/08/07 00:46:10;;;;;;;3.70;1.67;;;;;;;9.30;100.00;93973.25;5008794;28;20045;-62
2023/08/07 00:48:37;;;;;;;5.25;1.90;;;;;;;9.28;100.00;93964.69;5008175;28;20050;-62
2023/08/07 00:51:04;;;;;;;4.10;2.10;;;;;;;9.37;100.00;93963.00;5008452;28;20061;-67
2023/08/07 00:53:31;;;;;;;4.85;2.20;;;;;;;9.39;100.00;93954.38;4994222;28;20034;-65
2023/08/07 00:55:58;;;;;;;4.67;2.00;;;;;;;9.47;100.00;93958.59;5008120;28;20046;-63
2023/08/07 00:58:25;;;;;;;4.45;2.22;;;;;;;9.58;100.00;93948.31;5008593;28;20052;-62
2023/08/07 01:00:51;;;;;;;4.10;2.10;;;;;;;9.40;100.00;93950.47;5008179;28;20046;-62
2023/08/07 01:03:18;;;;;;;3.90;2.03;;;;;;;9.39;100.00;93951.63;5008299;28;20045;-63
2023/08/07 01:05:45;;;;;;;7.68;3.70;;;;;;;9.47;100.00;93958.59;5008049;28;20428;-65
2023/08/07 01:08:12;;;;;;;4.80;2.00;;;;;;;9.34;100.00;93947.38;5008757;28;20717;-66
2023/08/07 01:10:54;;;;;;;4.60;1.90;;;;;;;9.23;100.00;93949.44;5007997;28;20056;-62
2023/08/07 01:13:27;;;;;;;4.60;2.30;;;;;;;9.19;100.00;93949.50;5008670;28;20491;-62
2023/08/07 01:15:59;;;;;;;4.63;2.22;;;;;;;9.22;100.00;93949.88;5007993;28;20467;-64
2023/08/07 01:18:27;;;;;;;4.72;1.92;;;;;;;9.26;100.00;93950.63;5008311;28;20050;-62
2023/08/07 01:20:53;;;;;;;3.93;1.90;;;;;;;9.31;100.00;93942.72;5008212;28;20042;-62
2023/08/07 01:23:20;;;;;;;4.35;2.00;;;;;;;9.27;100.00;93941.97;5008155;28;20414;-65
2023/08/07 01:25:47;;;;;;;3.80;1.98;;;;;;;9.20;100.00;93939.31;5001607;28;20045;-62
2023/08/07 01:28:33;;;;;;;4.43;2.00;;;;;;;9.19;100.00;93938.53;4989016;28;20419;-62
2023/08/07 01:31:06;;;;;;;3.80;2.05;;;;;;;9.15;100.00;93945.22;4976111;28;20047;-63
2023/08/07 01:33:38;;;;;;;4.23;2.10;;;;;;;8.95;100.00;93948.53;4989123;28;20054;-62
2023/08/07 01:36:07;;;;;;;5.13;2.08;;;;;;;8.74;100.00;93941.28;5007815;28;20111;-64
2023/08/07 01:38:35;;;;;;;4.90;2.00;;;;;;;8.73;100.00;93949.88;5008267;28;20131;-62
2023/08/07 01:41:03;;;;;;;4.15;2.03;;;;;;;8.73;100.00;93945.19;5001113;28;20177;-63
2023/08/07 01:43:31;;;;;;;4.70;2.10;;;;;;;8.63;100.00;93948.78;5001995;28;20414;-65
2023/08/07 01:45:58;;;;;;;4.10;2.10;;;;;;;8.70;100.00;93951.47;5007617;28;20049;-65
2023/08/07 01:48:25;;;;;;;4.40;2.08;;;;;;;8.72;100.00;93945.59;5007091;28;20045;-64
2023/08/07 01:50:53;;;;;;;14.40;5.35;;;;;;;8.72;100.00;93953.81;5007698;28;20049;-63
2023/08/07 01:53:20;;;;;;;4.47;2.30;;;;;;;8.62;100.00;93955.44;5007923;28;20462;-62
2023/08/07 01:55:47;;;;;;;4.95;2.22;;;;;;;8.63;100.00;93967.91;5009023;28;20402;-62
2023/08/07 01:58:13;;;;;;;5.37;2.47;;;;;;;8.69;100.00;93954.59;5010512;28;20041;-62
2023/08/07 02:00:40;;;;;;;3.75;2.00;;;;;;;8.66;100.00;93961.66;5010956;28;20392;-63
2023/08/07 02:03:07;;;;;;;4.00;2.10;;;;;;;8.72;100.00;93965.53;5011632;28;20044;-63
2023/08/07 02:05:34;;;;;;;5.15;2.50;;;;;;;8.63;100.00;93967.16;5007859;28;20058;-65
2023/08/07 02:08:00;;;;;;;5.88;2.40;;;;;;;8.69;100.00;93962.81;5000727;28;20045;-62
2023/08/07 02:10:28;;;;;;;4.47;2.20;;;;;;;8.68;100.00;93967.50;5011538;28;20686;-63
2023/08/07 02:12:57;;;;;;;4.25;2.35;;;;;;;8.76;100.00;93962.75;5010768;28;20415;-63
2023/08/07 02:15:24;;;;;;;5.28;2.20;;;;;;;8.66;100.00;93960.88;4986336;28;20050;-62
2023/08/07 02:17:51;;;;;;;5.32;2.60;;;;;;;8.66;100.00;93961.66;5007300;28;20469;-62
2023/08/07 02:20:17;;;;;;;5.80;2.33;;;;;;;8.72;100.00;93975.69;5026304;28;20057;-65
2023/08/07 02:22:44;;;;;;;5.77;2.50;;;;;;;8.56;100.00;93976.97;5010718;28;20044;-63
2023/08/07 02:25:11;;;;;;;6.30;2.53;;;;;;;8.53;100.00;93963.31;5011288;28;20042;-62
2023/08/07 02:27:38;;;;;;;5.38;2.47;;;;;;;8.65;100.00;93975.72;5011131;28;20533;-60
2023/08/07 02:30:06;;;;;;;4.53;1.90;;;;;;;8.69;100.00;93971.00;5010861;28;20525;-62
2023/08/07 02:32:33;;;;;;;4.35;2.08;;;;;;;8.64;100.00;93968.72;5011051;28;20450;-65
2023/08/07 02:34:59;;;;;;;5.07;2.40;;;;;;;8.55;100.00;93972.69;5010769;28;20399;-62
2023/08/07 02:37:26;;;;;;;4.90;2.17;;;;;;;8.59;100.00;93969.91;5011046;28;20442;-65
2023/08/07 02:39:53;;;;;;;4.93;2.15;;;;;;;8.60;100.00;93974.97;5010666;28;20404;-64
2023/08/07 02:42:20;;;;;;;3.53;2.00;;;;;;;8.56;100.00;93976.97;4997871;28;20038;-62
2023/08/07 02:44:47;;;;;;;4.03;2.10;;;;;;;8.58;100.00;93971.09;4999922;28;20038;-62
2023/08/07 02:47:13;;;;;;;4.00;2.10;;;;;;;8.52;100.00;93976.22;5006825;28;20046;-62
2023/08/07 02:49:40;;;;;;;4.03;2.08;;;;;;;8.52;100.00;93972.69;5010396;28;20394;-62
2023/08/07 02:52:07;;;;;;;10.10;5.13;;;;;;;8.55;100.00;93980.88;5009629;28;20037;-65
2023/08/07 02:54:34;;;;;;;7.35;2.10;;;;;;;8.50;100.00;93980.53;5010633;28;20042;-62
2023/08/07 02:57:00;;;;;;;3.80;2.20;;;;;;;8.49;100.00;93970.75;5010044;28;20118;-62
2023/08/07 02:59:27;;;;;;;4.53;1.97;;;;;;;8.44;100.00;93971.19;5010652;28;20402;-65
2023/08/07 03:01:54;;;;;;;4.72;1.95;;;;;;;8.38;100.00;93979.78;5009746;28;20046;-63
2023/08/07 03:04:21;;;;;;;4.78;2.20;;;;;;;8.45;100.00;93979.00;5010259;28;20042;-63
2023/08/07 03:06:48;;;;;;;3.80;1.85;;;;;;;8.44;100.00;93982.13;5009240;28;20046;-63
2023/08/07 03:09:15;;;;;;;5.60;2.28;;;;;;;8.28;100.00;93988.03;5010411;28;20050;-63
2023/08/07 03:11:41;;;;;;;3.60;2.20;;;;;;;8.32;100.00;93986.84;5009971;28;20077;-62
2023/08/07 03:14:08;;;;;;;5.22;2.10;;;;;;;8.29;100.00;93992.31;5010488;28;20457;-63
2023/08/07 03:16:35;;;;;;;5.30;2.13;;;;;;;8.17;100.00;93996.31;4993721;28;20503;-62
2023/08/07 03:19:02;;;;;;;5.80;1.90;;;;;;;8.12;100.00;93996.72;4993458;28;20042;-65
2023/08/07 03:21:28;;;;;;;4.38;2.30;;;;;;;8.15;100.00;93991.25;5010279;28;20045;-62
2023/08/07 03:23:55;;;;;;;6.57;2.37;;;;;;;8.06;100.00;93996.34;5009512;28;20046;-62
2023/08/07 03:26:22;;;;;;;6.05;2.00;;;;;;;8.01;100.00;93996.78;5009992;28;20042;-65
2023/08/07 03:28:49;;;;;;;4.38;2.30;;;;;;;7.97;100.00;93998.75;5009185;28;20062;-64
2023/08/07 03:31:16;;;;;;;5.60;2.40;;;;;;;8.02;100.00;93994.81;5009904;28;20046;-62
2023/08/07 03:33:44;;;;;;;5.40;2.40;;;;;;;7.91;100.00;94000.34;5009642;28;20052;-63
2023/08/07 03:36:10;;;;;;;5.20;2.33;;;;;;;7.80;100.00;94005.81;5009908;28;20407;-62
2023/08/07 03:38:37;;;;;;;5.10;2.00;;;;;;;7.87;100.00;94000.34;5009406;28;20046;-61
2023/08/07 03:41:04;;;;;;;4.05;2.00;;;;;;;7.82;100.00;93995.28;5009691;28;20107;-63
2023/08/07 03:43:31;;;;;;;4.68;2.17;;;;;;;7.58;100.00;94005.09;5009642;28;20092;-63
2023/08/07 03:45:57;;;;;;;4.25;2.03;;;;;;;7.50;100.00;94004.31;5009213;28;20483;-65
2023/08/07 03:48:29;;;;;;;5.10;2.40;;;;;;;7.34;100.00;94009.44;5009706;28;20101;-65
2023/08/07 03:51:08;;;;;;;5.75;2.17;;;;;;;7.45;100.00;94017.63;5009116;28;20037;-63
2023/08/07 03:53:35;;;;;;;4.68;2.60;;;;;;;7.42;100.00;94015.66;5008402;28;20411;-62
2023/08/07 03:56:02;;;;;;;4.18;2.35;;;;;;;7.47;100.00;94023.47;5007542;28;20044;-65
2023/08/07 03:58:29;;;;;;;4.07;2.38;;;;;;;7.49;100.00;94019.16;4996740;28;20042;-62
2023/08/07 04:00:56;;;;;;;4.97;2.47;;;;;;;7.49;100.00;94018.41;5007828;28;20056;-62
2023/08/07 04:03:23;;;;;;;5.43;2.58;;;;;;;7.66;100.00;94011.31;5009472;28;20052;-61
2023/08/07 04:05:54;;;;;;;5.30;2.20;;;;;;;7.70;100.00;94017.56;5009045;28;20048;-62
2023/08/07 04:08:22;;;;;;;6.75;2.70;;;;;;;7.67;100.00;94021.09;5009567;28;20054;-65
2023/08/07 04:11:00;;;;;;;5.20;2.38;;;;;;;7.57;100.00;94026.16;5009146;28;20048;-63
2023/08/07 04:13:27;;;;;;;4.47;2.20;;;;;;;7.58;100.00;94018.75;4984219;28;20080;-62
2023/08/07 04:15:55;;;;;;;4.95;2.50;;;;;;;7.54;100.00;94020.72;4971314;28;20488;-62
2023/08/07 04:18:22;;;;;;;6.72;2.55;;;;;;;7.58;100.00;94014.06;4974619;28;20121;-62
2023/08/07 04:20:51;;;;;;;4.72;2.53;;;;;;;7.65;100.00;94015.25;4988347;28;20046;-68
2023/08/07 04:23:17;;;;;;;6.22;2.45;;;;;;;7.67;100.00;94010.94;4988637;28;20053;-62
2023/08/07 04:25:46;;;;;;;6.07;2.50;;;;;;;7.67;100.00;94001.97;4987036;28;20446;-66
2023/08/07 04:28:13;;;;;;;5.32;3.13;;;;;;;7.66;100.00;93997.66;4988472;28;20039;-66
2023/08/07 04:30:40;;;;;;;5.55;2.58;;;;;;;7.73;100.00;93994.94;4988570;28;20043;-63
2023/08/07 04:33:08;;;;;;;5.18;2.60;;;;;;;7.72;100.00;93994.13;4988499;28;20042;-63
2023/08/07 04:35:35;;;;;;;4.47;2.28;;;;;;;7.82;100.00;93989.03;4988396;28;20050;-63
2023/08/07 04:38:03;;;;;;;5.30;2.40;;;;;;;7.87;100.00;93994.88;5007222;28;21539;-62
2023/08/07 04:40:29;;;;;;;5.03;2.80;;;;;;;7.79;100.00;93993.34;5008232;28;20087;-62
2023/08/07 04:42:56;;;;;;;5.68;2.58;;;;;;;7.70;100.00;93985.56;5004671;28;20058;-63
2023/08/07 04:45:23;;;;;;;4.70;2.55;;;;;;;7.85;100.00;94007.34;4988179;28;20042;-66
2023/08/07 04:47:50;;;;;;;4.00;2.60;;;;;;;7.76;100.00;93994.13;4988249;28;20419;-63
2023/08/07 04:50:17;;;;;;;6.37;2.83;;;;;;;7.73;100.00;93994.94;5003736;28;20069;-63
2023/08/07 04:52:44;;;;;;;4.68;2.80;;;;;;;7.79;100.00;93998.81;4988025;28;20402;-66
2023/08/07 04:55:11;;;;;;;5.43;2.38;;;;;;;7.67;100.00;94002.75;4988227;28;20064;-65
2023/08/07 04:57:38;;;;;;;5.22;2.35;;;;;;;7.75;100.00;94001.53;4987821;28;20049;-63
2023/08/07 05:00:05;;;;;;;6.10;2.88;;;;;;;7.79;100.00;94001.53;4988160;28;20076;-63
2023/08/07 05:02:32;;;;;;;4.93;3.00;;;;;;;7.82;100.00;94000.72;4993629;28;20561;-64
2023/08/07 05:04:59;;;;;;;5.78;2.70;;;;;;;8.13;100.00;94003.72;4980926;28;20407;-63
2023/08/07 05:07:26;;;;;;;5.90;2.42;;;;;;;8.35;100.00;93999.72;4988255;28;20057;-63
2023/08/07 05:09:53;;;;;;;5.95;2.30;;;;;;;8.51;100.00;94001.22;4987438;28;20062;-66
2023/08/07 05:12:20;;;;;;;4.32;2.45;;;;;;;8.68;100.00;94003.06;4986556;28;20080;-62
2023/08/07 05:14:47;;;;;;;4.80;2.30;;;;;;;8.74;100.00;94004.19;4987891;28;20046;-63
2023/08/07 05:17:13;;;;;;;5.97;2.50;;;;;;;9.00;100.00;93996.59;4983254;28;20047;-63
2023/08/07 05:19:40;;;;;;;4.28;2.10;;;;;;;8.95;100.00;93999.75;4979635;28;20702;-66
2023/08/07 05:22:07;;;;;;;4.80;2.53;;;;;;;8.90;100.00;94000.97;4974721;28;20030;-62
2023/08/07 05:24:38;;;;;;;4.25;2.42;;;;;;;8.98;100.00;94012.63;4988384;28;20042;-62
2023/08/07 05:27:08;;;;;;;4.83;2.30;;;;;;;8.88;100.00;94016.25;4974654;28;20629;-65
2023/08/07 05:29:43;;;;;;;4.22;2.25;;;;;;;8.89;100.00;94012.31;4988134;28;20046;-62
2023/08/07 05:32:11;;;;;;;4.50;2.42;;;;;;;8.72;100.00;94022.22;4997382;28;21602;-62
2023/08/07 05:34:38;;;;;;;4.22;2.35;;;;;;;8.73;100.00;94024.53;5010920;28;20119;-61
2023/08/07 05:37:06;;;;;;;4.20;2.42;;;;;;;8.90;100.00;94017.38;5010915;28;20049;-63
2023/08/07 05:39:34;;;;;;;3.80;2.47;;;;;;;9.12;100.00;94023.47;5011534;28;20080;-63
2023/08/07 05:42:01;;;;;;;5.18;2.60;;;;;;;9.48;100.00;94027.88;5010639;28;20042;-64
2023/08/07 05:44:29;;;;;;;4.32;2.78;;;;;;;9.49;100.00;94027.44;5011259;28;20418;-66
2023/08/07 05:46:56;;;;;;;3.75;2.30;;;;;;;9.46;100.00;94028.28;5010649;28;20399;-67
2023/08/07 05:49:22;;;;;;;4.28;2.03;;;;;;;9.52;100.00;94025.88;5011471;28;20436;-63
2023/08/07 05:51:52;;;;;;;5.60;2.37;;;;;;;9.67;100.00;94027.28;5010553;28;20042;-64
2023/08/07 05:54:19;;;;;;;4.20;2.10;;;;;;;9.46;100.00;94027.50;5010985;28;20384;-66
2023/08/07 05:56:46;;;;;;;3.67;2.00;;;;;;;9.39;100.00;94025.59;4997699;28;20092;-64
2023/08/07 05:59:13;;;;;;;3.80;2.10;;;;;;;9.56;100.00;94032.88;5010914;28;20048;-63
2023/08/07 06:01:40;;;;;;;4.25;2.25;;;;;;;9.70;100.00;94031.16;5010654;28;20410;-63
2023/08/07 06:04:08;;;;;;;3.53;2.10;;;;;;;9.57;100.00;94033.66;5017585;28;20095;-66
2023/08/07 06:06:36;;;;;;;3.90;1.90;;;;;;;9.92;100.00;94035.25;5015224;28;20065;-63
2023/08/07 06:09:03;;;;;;;4.13;1.88;;;;;;;10.30;100.00;94031.69;5009846;28;21587;-64
2023/08/07 06:11:31;;;;;;;3.47;1.90;;;;;;;13.27;100.00;94027.59;5011014;28;20054;-64
2023/08/07 06:13:58;;;;;;;3.60;2.08;;;;;;;13.69;100.00;94019.50;5010099;28;20037;-65
2023/08/07 06:16:25;;;;;;;4.80;1.97;;;;;;;13.70;100.00;94018.28;5010685;28;20111;-66
2023/08/07 06:18:52;;;;;;;2.90;1.70;;;;;;;15.19;100.00;94020.00;5010104;28;20044;-63
2023/08/07 06:21:20;;;;;;;2.92;1.70;;;;;;;16.97;100.00;94011.56;5010234;28;20056;-64
2023/08/07 06:23:47;;;;;;;3.17;1.73;;;;;;;14.80;100.00;94012.94;5008383;28;20384;-63
2023/08/07 06:26:14;;;;;;;3.55;1.80;;;;;;;13.26;100.00;94026.03;5010137;28;20159;-66
2023/08/07 06:28:42;;;;;;;4.07;1.87;;;;;;;12.81;100.00;94026.69;5010219;28;20050;-63
2023/08/07 06:31:10;;;;;;;3.72;1.88;;;;;;;14.08;100.00;94032.25;5010259;28;20553;-66
2023/08/07 06:33:37;;;;;;;3.42;1.73;;;;;;;15.87;100.00;94022.59;5010202;28;20472;-66
2023/08/07 06:36:04;;;;;;;3.60;1.80;;;;;;;15.27;100.00;94026.09;5010355;28;20052;-64
2023/08/07 06:38:31;;;;;;;3.97;1.90;;;;;;;16.55;100.00;94036.84;5010284;28;20057;-64
2023/08/07 06:40:58;;;;;;;3.23;1.80;;;;;;;19.20;89.04;94032.75;5008608;28;20034;-70
2023/08/07 06:43:25;;;;;;;3.40;1.70;;;;;;;19.89;72.54;94022.69;5009187;28;20076;-64
2023/08/07 06:45:54;;;;;;;3.40;1.80;;;;;;;19.03;78.41;94033.09;4999345;28;20069;-65
2023/08/07 06:48:21;;;;;;;3.25;1.63;;;;;;;20.75;69.27;94023.91;4993477;28;20119;-67
2023/08/07 06:50:51;;;;;;;2.67;1.80;;;;;;;20.15;70.63;94023.00;5010212;28;20042;-65
2023/08/07 06:53:19;;;;;;;3.13;1.83;;;;;;;20.99;67.88;94025.84;5009283;28;20054;-65
2023/08/07 06:55:45;;;;;;;3.78;1.67;;;;;;;20.97;65.52;94028.34;5010078;28;20052;-65
2023/08/07 06:58:12;;;;;;;3.05;1.60;;;;;;;21.77;61.30;94031.16;5005413;28;20054;-66
2023/08/07 07:00:39;;;;;;;3.40;1.60;;;;;;;21.37;61.35;94030.56;4990556;28;20064;-66
2023/08/07 07:03:07;;;;;;;2.80;1.50;;;;;;;22.76;58.05;94034.19;5003343;28;20046;-66
2023/08/07 07:05:34;;;;;;;3.50;1.37;;;;;;;23.22;52.45;94039.78;4991682;28;20050;-65
2023/08/07 07:08:01;;;;;;;3.22;1.80;;;;;;;22.84;53.32;94033.28;5003174;28;20044;-62
2023/08/07 07:10:28;;;;;;;2.78;1.40;;;;;;;19.83;65.10;94039.28;5019505;28;20045;-64
2023/08/07 07:12:55;;;;;;;4.22;1.40;;;;;;;18.52;72.65;94045.66;5005030;28;20040;-62
2023/08/07 07:15:22;;;;;;;3.25;1.30;;;;;;;17.58;82.24;94045.97;5009251;28;20659;-64
2023/08/07 07:17:48;;;;;;;3.83;1.40;;;;;;;19.73;72.24;94043.38;5007000;28;20053;-64
2023/08/07 07:20:15;;;;;;;3.30;1.40;;;;;;;17.72;80.63;94050.19;5000316;28;20045;-63
2023/08/07 07:22:42;;;;;;;3.38;1.40;;;;;;;16.80;90.11;94049.00;5009335;28;20050;-63
2023/08/07 07:25:09;;;;;;;3.38;1.40;;;;;;;17.18;89.63;94062.63;5010284;28;20042;-62
2023/08/07 07:27:36;;;;;;;2.72;1.50;;;;;;;16.55;93.72;94065.31;5010388;28;20041;-63
2023/08/07 07:30:03;;;;;;;3.43;1.83;;;;;;;15.52;100.00;94067.56;5012790;28;20050;-62
2023/08/07 07:32:30;;;;;;;3.10;1.55;;;;;;;16.29;97.42;94055.56;4990276;28;20506;-62
2023/08/07 07:34:57;;;;;;;3.15;1.65;;;;;;;18.41;84.98;94070.38;4990322;28;20050;-62
2023/08/07 07:37:23;;;;;;;3.22;1.60;;;;;;;20.41;72.18;94073.44;4990660;28;20607;-64
2023/08/07 07:39:50;;;;;;;2.85;1.65;;;;;;;23.47;59.19;94083.00;4988881;28;20050;-63
2023/08/07 07:42:17;;;;;;;2.57;1.33;;;;;;;20.43;64.47;94072.97;4990475;28;20056;-63
2023/08/07 07:44:44;;;;;;;3.13;1.60;;;;;;;20.46;70.26;94074.78;4986676;28;20054;-64
2023/08/07 07:47:11;;;;;;;2.83;1.70;;;;;;;20.79;66.92;94076.72;4993814;28;20054;-62
2023/08/07 07:49:46;;;;;;;3.40;1.70;;;;;;;19.68;70.01;94089.31;4981639;28;20046;-62
2023/08/07 07:52:13;;;;;;;3.00;1.70;;;;;;;19.16;73.54;94086.53;4990194;28;20115;-63
2023/08/07 07:54:40;;;;;;;2.80;1.50;;;;;;;19.22;74.59;94085.91;4989988;28;20057;-63
2023/08/07 07:57:07;;;;;;;2.60;1.40;;;;;;;18.99;77.07;94085.34;4990177;28;20046;-67
2023/08/07 07:59:33;;;;;;;3.47;1.95;;;;;;;19.41;73.90;94089.41;4990180;28;20423;-62
2023/08/07 08:02:01;;;;;;;2.80;1.63;;;;;;;19.15;73.87;94098.13;4989567;28;20057;-62
2023/08/07 08:04:27;;;;;;;4.00;1.60;;;;;;;19.34;71.99;94093.31;4989909;28;20301;-62
2023/08/07 08:06:55;;;;;;;3.43;1.60;;;;;;;18.82;75.47;94103.59;4989498;28;20050;-66
2023/08/07 08:09:21;;;;;;;3.42;1.58;;;;;;;19.72;70.04;94091.97;4989983;28;20042;-64
2023/08/07 08:11:48;;;;;;;3.55;1.35;;;;;;;20.41;67.48;94101.31;4989533;28;20125;-63
2023/08/07 08:14:16;;;;;;;4.68;1.60;;;;;;;20.63;66.65;94101.03;4988675;28;20047;-63
2023/08/07 08:16:43;;;;;;;3.20;1.50;;;;;;;22.81;58.55;94098.59;4989454;28;20054;-63
2023/08/07 08:19:10;;;;;;;2.90;1.60;;;;;;;22.39;56.44;94102.66;4989753;28;20069;-63
2023/08/07 08:21:37;;;;;;;2.63;1.40;;;;;;;21.48;58.89;94097.00;4988106;28;20419;-63
2023/08/07 08:24:04;;;;;;;3.70;1.58;;;;;;;20.70;59.67;94109.00;4989315;28;20041;-63
2023/08/07 08:26:31;;;;;;;3.40;1.38;;;;;;;21.81;57.19;94112.72;4989785;28;20049;-62
2023/08/07 08:28:58;;;;;;;3.45;1.83;;;;;;;22.19;57.46;94113.81;4989318;28;20039;-65
2023/08/07 08:31:24;;;;;;;3.27;1.47;;;;;;;22.42;54.94;94114.91;4989499;28;20058;-62
2023/08/07 08:33:52;;;;;;;2.65;1.60;;;;;;;22.32;54.34;94119.88;4989274;28;20050;-63
2023/08/07 08:36:19;;;;;;;3.13;1.50;;;;;;;21.86;56.01;94129.59;4989446;28;20054;-63
2023/08/07 08:38:47;;;;;;;2.80;1.40;;;;;;;21.19;57.79;94126.41;4988889;28;20046;-65
2023/08/07 08:41:16;;;;;;;3.30;1.80;;;;;;;20.89;56.69;94131.19;4989737;28;20073;-62
2023/08/07 08:43:45;;;;;;;3.33;1.60;;;;;;;18.56;64.21;94134.47;4977474;28;20043;-66
2023/08/07 08:46:18;;;;;;;3.00;1.58;;;;;;;19.25;64.92;94135.06;4976354;28;20424;-67
2023/08/07 08:48:56;;;;;;;3.00;1.40;;;;;;;19.41;63.67;94145.06;4971915;28;20077;-62
2023/08/07 08:51:24;;;;;;;2.80;1.42;;;;;;;18.85;64.21;94136.03;4989550;28;20050;-61
2023/08/07 08:53:56;;;;;;;2.55;1.42;;;;;;;18.61;66.65;94144.19;4988940;28;20046;-62
2023/08/07 08:56:23;;;;;;;3.07;1.70;;;;;;;19.04;64.77;94140.34;4989442;28;20042;-63
2023/08/07 08:58:50;;;;;;;2.70;1.60;;;;;;;20.16;62.21;94130.41;4987508;28;20062;-65
2023/08/07 09:01:18;;;;;;;3.03;1.55;;;;;;;20.28;58.53;94123.06;4989302;28;20047;-65
2023/08/07 09:03:46;;;;;;;4.43;1.60;;;;;;;22.89;53.08;94112.94;4988662;28;20046;-62
2023/08/07 09:06:14;;;;;;;2.67;1.65;;;;;;;23.45;50.21;94119.13;4991457;28;20060;-63
2023/08/07 09:08:43;;;;;;;2.80;1.53;;;;;;;22.60;49.96;94111.09;4992841;28;20057;-62
2023/08/07 09:11:10;;;;;;;3.55;1.50;;;;;;;22.98;50.49;94112.00;4993351;28;20426;-62
2023/08/07 09:13:38;;;;;;;2.50;1.27;;;;;;;21.68;52.24;94113.06;4992708;28;20058;-60
2023/08/07 09:16:08;;;;;;;3.58;1.40;;;;;;;19.71;57.83;94121.78;4993115;28;20042;-62
2023/08/07 09:18:35;;;;;;;3.35;1.60;;;;;;;19.22;63.75;94120.06;4993133;28;20046;-63
2023/08/07 09:21:02;;;;;;;3.57;1.67;;;;;;;20.59;59.33;94113.59;5011753;28;20120;-63
2023/08/07 09:23:29;;;;;;;2.63;1.42;;;;;;;21.18;56.12;94104.56;5012580;28;20120;-63
2023/08/07 09:26:00;;;;;;;3.63;1.40;;;;;;;20.22;58.41;94114.59;5010679;28;20044;-68
2023/08/07 09:28:29;;;;;;;3.20;1.77;;;;;;;18.82;63.87;94121.06;5012510;28;20053;-64
2023/08/07 09:30:56;;;;;;;3.03;1.60;;;;;;;18.82;64.77;94120.28;5012177;28;20117;-63
2023/08/07 09:33:27;;;;;;;2.90;1.60;;;;;;;19.42;62.97;94118.78;5012514;28;20049;-64
2023/08/07 09:35:58;;;;;;;3.00;1.70;;;;;;;20.20;60.27;94107.94;5011777;28;20501;-63
2023/08/07 09:38:30;;;;;;;3.55;1.80;;;;;;;19.10;62.61;94112.69;5012454;28;20054;-68
2023/08/07 09:41:02;;;;;;;3.88;1.80;;;;;;;18.87;66.74;94114.84;5011840;28;20106;-64
2023/08/07 09:43:33;;;;;;;3.70;1.60;;;;;;;17.20;73.26;94114.88;5012335;28;20041;-63
2023/08/07 09:46:07;;;;;;;3.50;1.60;;;;;;;17.69;73.47;94133.63;5012038;28;20437;-64
2023/08/07 09:48:42;;;;;;;2.78;1.70;;;;;;;16.76;76.55;94127.50;5012125;28;20145;-63
2023/08/07 09:51:09;;;;;;;3.40;1.95;;;;;;;17.04;78.15;94127.72;5011132;28;20781;-66
2023/08/07 09:53:36;;;;;;;3.17;1.67;;;;;;;17.67;74.68;94133.31;5010028;28;20046;-63
2023/08/07 09:56:03;;;;;;;3.00;1.70;;;;;;;19.50;65.83;94131.91;5003917;28;20571;-68
2023/08/07 09:58:30;;;;;;;4.03;2.07;;;;;;;18.22;67.76;94136.25;5012187;28;20113;-62
2023/08/07 10:01:04;;;;;;;5.68;2.00;;;;;;;15.44;79.54;94140.91;5011618;28;20153;-63
2023/08/07 10:03:31;;;;;;;3.13;1.92;;;;;;;17.78;73.25;94134.41;5010603;28;20422;-63
2023/08/07 10:05:59;;;;;;;4.35;1.80;;;;;;;18.74;67.86;94139.25;5011616;28;20067;-63
2023/08/07 10:08:26;;;;;;;4.00;1.90;;;;;;;18.74;63.52;94140.00;5012004;28;20042;-63
2023/08/07 10:10:53;;;;;;;3.10;1.37;;;;;;;18.25;63.96;94145.66;5011573;28;20053;-62
2023/08/07 10:13:21;;;;;;;3.08;1.60;;;;;;;18.08;66.79;94139.63;5003643;28;20042;-62
2023/08/07 10:16:04;;;;;;;3.05;1.77;;;;;;;18.12;65.16;94143.03;5010877;28;20610;-62
2023/08/07 10:18:31;;;;;;;2.75;1.70;;;;;;;17.77;68.23;94145.97;5011513;28;20045;-62
2023/08/07 10:21:00;;;;;;;3.47;1.58;;;;;;;20.07;59.98;94153.53;5010980;28;20046;-66
2023/08/07 10:23:27;;;;;;;2.63;1.20;;;;;;;22.52;49.81;94141.50;5011558;28;20045;-67
2023/08/07 10:25:54;;;;;;;3.13;1.30;;;;;;;22.25;49.09;94137.81;5009665;28;20038;-64
2023/08/07 10:28:24;;;;;;;3.03;1.50;;;;;;;21.85;49.07;94144.81;5011151;28;20109;-62
2023/08/07 10:30:54;;;;;;;3.05;1.38;;;;;;;21.22;51.19;94144.97;5012698;28;20050;-68
2023/08/07 10:33:21;;;;;;;3.28;1.60;;;;;;;19.68;54.53;94149.78;5009933;28;20042;-65
2023/08/07 10:35:48;;;;;;;3.17;1.50;;;;;;;19.84;53.56;94145.88;5010966;28;20056;-67
2023/08/07 10:38:19;;;;;;;2.50;1.40;;;;;;;18.96;56.37;94153.78;4996724;28;20050;-62
2023/08/07 10:41:14;;;;;;;3.20;1.48;;;;;;;16.66;64.95;94153.59;5010781;28;20042;-63
2023/08/07 10:43:43;;;;;;;3.38;1.50;;;;;;;17.55;63.88;94155.13;4999271;28;20046;-63
2023/08/07 10:46:15;;;;;;;3.50;1.60;;;;;;;17.95;64.54;94157.19;5009746;28;20065;-62
2023/08/07 10:48:45;;;;;;;3.30;1.57;;;;;;;18.32;62.33;94156.50;5010467;28;20041;-62
2023/08/07 10:51:17;;;;;;;2.42;1.40;;;;;;;18.20;62.15;94155.38;5010725;28;20068;-63
2023/08/07 10:53:50;;;;;;;2.83;1.75;;;;;;;18.47;62.49;94156.66;5010513;28;20042;-62
2023/08/07 10:56:28;;;;;;;2.92;1.70;;;;;;;17.95;62.22;94162.72;5009581;28;20046;-62
2023/08/07 10:58:55;;;;;;;4.53;1.67;;;;;;;17.46;63.01;94162.63;4998052;28;20115;-64
2023/08/07 11:01:40;;;;;;;2.93;1.43;;;;;;;17.30;65.00;94160.84;5010776;28;20076;-63
2023/08/07 11:04:14;;;;;;;2.80;1.58;;;;;;;17.29;65.58;94167.63;5010172;28;20046;-66
2023/08/07 11:06:43;;;;;;;2.88;1.50;;;;;;;16.99;65.29;94171.91;5010036;28;20056;-62
2023/08/07 11:09:10;;;;;;;3.05;1.70;;;;;;;17.01;68.43;94173.00;5018869;28;20140;-62
2023/08/07 11:11:47;;;;;;;3.03;1.60;;;;;;;16.88;70.40;94183.34;5005014;28;20069;-63
2023/08/07 11:14:16;;;;;;;2.93;1.60;;;;;;;16.17;79.30;94198.38;4999164;28;20050;-64
2023/08/07 11:16:44;;;;;;;3.08;1.60;;;;;;;15.80;84.24;94195.19;4993912;28;20062;-62
2023/08/07 11:19:13;;;;;;;10.10;3.97;;;;;;;16.10;93.01;94190.31;4999203;28;20054;-65
2023/08/07 11:21:40;;;;;;;3.83;2.00;;;;;;;17.20;89.29;94181.44;5010329;28;20083;-63
2023/08/07 11:24:08;;;;;;;2.88;1.70;;;;;;;17.27;83.36;94168.09;5009869;28;20037;-64
2023/08/07 11:26:34;;;;;;;2.90;1.40;;;;;;;17.40;82.91;94170.00;5010307;28;20050;-63
2023/08/07 11:29:01;;;;;;;3.15;1.60;;;;;;;18.05;78.72;94165.53;5009359;28;20045;-62
2023/08/07 11:31:28;;;;;;;2.60;1.50;;;;;;;18.54;73.34;94164.72;5010255;28;20042;-71
2023/08/07 11:33:57;;;;;;;3.15;1.42;;;;;;;17.41;79.69;94157.69;5009959;28;20502;-62
2023/08/07 11:36:24;;;;;;;2.50;1.50;;;;;;;18.20;74.35;94154.63;5010306;28;20050;-63
2023/08/07 11:38:51;;;;;;;3.60;1.70;;;;;;;18.84;71.88;94154.72;5009963;28;20056;-63